sensor_id;sensor_type;location;lat;lon;timestamp;P1;durP1;ratioP1;P2;durP2;ratioP2
73107;SDS011;61559;50.476;15.588;2022-12-29T00:01:33;13.40;;;5.70;;
73107;SDS011;61559;50.476;15.588;2022-12-29T00:04:05;13.30;;;5.50;;
73107;SDS011;61559;50.476;15.588;2022-12-29T00:06:42;12.70;;;4.90;;
73107;SDS011;61559;50.476;15.588;2022-12-29T00:09:14;11.40;;;4.70;;
73107;SDS011;61559;50.476;15.588;2022-12-29T00:11:46;9.60;;;4.80;;
73107;SDS011;61559;50.476;15.588;2022-12-29T00:14:19;23.00;;;7.90;;
73107;SDS011;61559;50.476;15.588;2022-12-29T00:17:08;28.00;;;8.50;;
73107;SDS011;61559;50.476;15.588;2022-12-29T00:19:41;19.40;;;6.20;;
73107;SDS011;61559;50.476;15.588;2022-12-29T00:22:29;22.40;;;6.60;;
73107;SDS011;61559;50.476;15.588;2022-12-29T00:25:18;15.60;;;5.90;;
73107;SDS011;61559;50.476;15.588;2022-12-29T00:28:08;14.90;;;5.60;;
73107;SDS011;61559;50.476;15.588;2022-12-29T00:30:59;9.80;;;4.10;;
73107;SDS011;61559;50.476;15.588;2022-12-29T00:33:48;12.90;;;5.50;;
73107;SDS011;61559;50.476;15.588;2022-12-29T00:36:38;9.00;;;4.20;;
73107;SDS011;61559;50.476;15.588;2022-12-29T00:39:12;7.40;;;3.60;;
73107;SDS011;61559;50.476;15.588;2022-12-29T00:42:04;9.10;;;3.80;;
73107;SDS011;61559;50.476;15.588;2022-12-29T00:44:54;9.60;;;4.20;;
73107;SDS011;61559;50.476;15.588;2022-12-29T00:47:25;11.10;;;4.70;;
73107;SDS011;61559;50.476;15.588;2022-12-29T00:49:56;11.10;;;5.10;;
73107;SDS011;61559;50.476;15.588;2022-12-29T00:52:27;12.60;;;5.40;;
73107;SDS011;61559;50.476;15.588;2022-12-29T00:54:58;14.30;;;5.10;;
73107;SDS011;61559;50.476;15.588;2022-12-29T00:59:59;15.90;;;6.50;;
73107;SDS011;61559;50.476;15.588;2022-12-29T01:02:31;12.40;;;5.70;;
73107;SDS011;61559;50.476;15.588;2022-12-29T01:05:02;18.10;;;6.90;;
73107;SDS011;61559;50.476;15.588;2022-12-29T01:07:34;12.30;;;5.20;;
73107;SDS011;61559;50.476;15.588;2022-12-29T01:10:05;8.60;;;4.30;;
73107;SDS011;61559;50.476;15.588;2022-12-29T01:12:40;7.60;;;4.10;;
73107;SDS011;61559;50.476;15.588;2022-12-29T01:15:13;7.20;;;4.20;;
73107;SDS011;61559;50.476;15.588;2022-12-29T01:17:45;8.40;;;4.70;;
73107;SDS011;61559;50.476;15.588;2022-12-29T01:20:16;10.40;;;3.60;;
73107;SDS011;61559;50.476;15.588;2022-12-29T01:22:47;7.90;;;3.20;;
73107;SDS011;61559;50.476;15.588;2022-12-29T01:25:18;8.20;;;3.80;;
73107;SDS011;61559;50.476;15.588;2022-12-29T01:27:49;11.50;;;3.50;;
73107;SDS011;61559;50.476;15.588;2022-12-29T01:30:20;7.30;;;3.10;;
73107;SDS011;61559;50.476;15.588;2022-12-29T01:35:21;6.90;;;2.90;;
73107;SDS011;61559;50.476;15.588;2022-12-29T01:37:52;8.80;;;3.00;;
73107;SDS011;61559;50.476;15.588;2022-12-29T01:40:23;8.30;;;3.30;;
73107;SDS011;61559;50.476;15.588;2022-12-29T01:42:54;25.20;;;8.60;;
73107;SDS011;61559;50.476;15.588;2022-12-29T01:45:25;17.80;;;6.80;;
73107;SDS011;61559;50.476;15.588;2022-12-29T01:47:57;26.20;;;8.60;;
73107;SDS011;61559;50.476;15.588;2022-12-29T01:50:32;27.80;;;9.50;;
73107;SDS011;61559;50.476;15.588;2022-12-29T01:53:08;65.50;;;19.60;;
73107;SDS011;61559;50.476;15.588;2022-12-29T01:55:43;31.40;;;9.10;;
73107;SDS011;61559;50.476;15.588;2022-12-29T01:58:17;17.90;;;6.70;;
73107;SDS011;61559;50.476;15.588;2022-12-29T02:00:51;24.60;;;7.50;;
73107;SDS011;61559;50.476;15.588;2022-12-29T02:03:23;25.80;;;9.30;;
73107;SDS011;61559;50.476;15.588;2022-12-29T02:05:57;52.50;;;17.20;;
73107;SDS011;61559;50.476;15.588;2022-12-29T02:08:31;75.00;;;19.70;;
73107;SDS011;61559;50.476;15.588;2022-12-29T02:11:03;38.30;;;11.90;;
73107;SDS011;61559;50.476;15.588;2022-12-29T02:13:35;25.70;;;8.90;;
73107;SDS011;61559;50.476;15.588;2022-12-29T02:16:09;37.40;;;13.50;;
73107;SDS011;61559;50.476;15.588;2022-12-29T02:18:51;25.40;;;9.30;;
73107;SDS011;61559;50.476;15.588;2022-12-29T02:21:47;27.30;;;9.80;;
73107;SDS011;61559;50.476;15.588;2022-12-29T02:24:39;19.20;;;8.50;;
73107;SDS011;61559;50.476;15.588;2022-12-29T02:30:38;13.70;;;7.20;;
73107;SDS011;61559;50.476;15.588;2022-12-29T02:33:18;17.20;;;7.40;;
73107;SDS011;61559;50.476;15.588;2022-12-29T02:35:56;22.30;;;8.00;;
73107;SDS011;61559;50.476;15.588;2022-12-29T02:38:45;19.90;;;8.40;;
73107;SDS011;61559;50.476;15.588;2022-12-29T02:41:27;16.90;;;7.30;;
73107;SDS011;61559;50.476;15.588;2022-12-29T02:44:03;23.30;;;9.50;;
73107;SDS011;61559;50.476;15.588;2022-12-29T02:46:43;23.10;;;8.50;;
73107;SDS011;61559;50.476;15.588;2022-12-29T02:49:19;20.20;;;7.20;;
73107;SDS011;61559;50.476;15.588;2022-12-29T02:52:02;18.40;;;7.10;;
73107;SDS011;61559;50.476;15.588;2022-12-29T02:54:36;15.60;;;6.80;;
73107;SDS011;61559;50.476;15.588;2022-12-29T02:57:12;13.40;;;6.80;;
73107;SDS011;61559;50.476;15.588;2022-12-29T02:59:45;10.90;;;5.60;;
73107;SDS011;61559;50.476;15.588;2022-12-29T03:02:29;12.20;;;6.10;;
73107;SDS011;61559;50.476;15.588;2022-12-29T03:05:18;13.40;;;6.00;;
73107;SDS011;61559;50.476;15.588;2022-12-29T03:07:59;15.10;;;7.50;;
73107;SDS011;61559;50.476;15.588;2022-12-29T03:10:37;22.20;;;9.30;;
73107;SDS011;61559;50.476;15.588;2022-12-29T03:13:19;14.80;;;6.70;;
73107;SDS011;61559;50.476;15.588;2022-12-29T03:16:17;11.20;;;5.50;;
73107;SDS011;61559;50.476;15.588;2022-12-29T03:18:55;11.30;;;5.20;;
73107;SDS011;61559;50.476;15.588;2022-12-29T03:21:32;18.80;;;6.10;;
73107;SDS011;61559;50.476;15.588;2022-12-29T03:24:25;14.60;;;7.10;;
73107;SDS011;61559;50.476;15.588;2022-12-29T03:26:59;10.40;;;5.40;;
73107;SDS011;61559;50.476;15.588;2022-12-29T03:29:35;11.50;;;5.90;;
73107;SDS011;61559;50.476;15.588;2022-12-29T03:32:09;13.00;;;6.00;;
73107;SDS011;61559;50.476;15.588;2022-12-29T03:34:45;17.40;;;6.80;;
73107;SDS011;61559;50.476;15.588;2022-12-29T03:37:18;16.00;;;7.70;;
73107;SDS011;61559;50.476;15.588;2022-12-29T03:39:53;15.40;;;7.80;;
73107;SDS011;61559;50.476;15.588;2022-12-29T03:42:25;12.50;;;5.90;;
73107;SDS011;61559;50.476;15.588;2022-12-29T03:44:59;19.00;;;7.50;;
73107;SDS011;61559;50.476;15.588;2022-12-29T03:47:30;18.30;;;8.60;;
73107;SDS011;61559;50.476;15.588;2022-12-29T03:50:01;16.60;;;7.00;;
73107;SDS011;61559;50.476;15.588;2022-12-29T03:52:32;18.20;;;7.30;;
73107;SDS011;61559;50.476;15.588;2022-12-29T03:55:05;18.00;;;8.20;;
73107;SDS011;61559;50.476;15.588;2022-12-29T03:57:37;19.90;;;7.40;;
73107;SDS011;61559;50.476;15.588;2022-12-29T04:02:39;14.30;;;6.80;;
73107;SDS011;61559;50.476;15.588;2022-12-29T04:05:11;15.20;;;7.50;;
73107;SDS011;61559;50.476;15.588;2022-12-29T04:07:42;15.00;;;6.70;;
73107;SDS011;61559;50.476;15.588;2022-12-29T04:10:13;14.30;;;6.60;;
73107;SDS011;61559;50.476;15.588;2022-12-29T04:12:45;12.70;;;6.30;;
73107;SDS011;61559;50.476;15.588;2022-12-29T04:15:16;14.30;;;6.70;;
73107;SDS011;61559;50.476;15.588;2022-12-29T04:17:47;14.90;;;7.10;;
73107;SDS011;61559;50.476;15.588;2022-12-29T04:20:18;14.50;;;6.90;;
73107;SDS011;61559;50.476;15.588;2022-12-29T04:23:07;14.50;;;6.40;;
73107;SDS011;61559;50.476;15.588;2022-12-29T04:28:07;13.60;;;6.20;;
73107;SDS011;61559;50.476;15.588;2022-12-29T04:30:39;11.80;;;6.20;;
73107;SDS011;61559;50.476;15.588;2022-12-29T04:33:10;13.20;;;6.40;;
73107;SDS011;61559;50.476;15.588;2022-12-29T04:35:41;12.70;;;6.00;;
73107;SDS011;61559;50.476;15.588;2022-12-29T04:38:13;14.50;;;6.70;;
73107;SDS011;61559;50.476;15.588;2022-12-29T04:40:45;12.30;;;6.00;;
73107;SDS011;61559;50.476;15.588;2022-12-29T04:43:16;10.20;;;5.30;;
73107;SDS011;61559;50.476;15.588;2022-12-29T04:45:47;6.10;;;3.00;;
73107;SDS011;61559;50.476;15.588;2022-12-29T04:48:18;6.70;;;3.50;;
73107;SDS011;61559;50.476;15.588;2022-12-29T04:53:19;9.00;;;4.60;;
73107;SDS011;61559;50.476;15.588;2022-12-29T04:55:51;6.30;;;4.00;;
73107;SDS011;61559;50.476;15.588;2022-12-29T04:58:22;7.10;;;3.30;;
73107;SDS011;61559;50.476;15.588;2022-12-29T05:00:53;9.00;;;3.70;;
73107;SDS011;61559;50.476;15.588;2022-12-29T05:03:24;7.00;;;3.40;;
73107;SDS011;61559;50.476;15.588;2022-12-29T05:05:56;6.10;;;3.20;;
73107;SDS011;61559;50.476;15.588;2022-12-29T05:08:27;5.90;;;3.10;;
73107;SDS011;61559;50.476;15.588;2022-12-29T05:10:58;6.50;;;3.20;;
73107;SDS011;61559;50.476;15.588;2022-12-29T05:13:29;5.70;;;3.00;;
73107;SDS011;61559;50.476;15.588;2022-12-29T05:16:00;5.50;;;3.60;;
73107;SDS011;61559;50.476;15.588;2022-12-29T05:18:31;6.20;;;3.50;;
73107;SDS011;61559;50.476;15.588;2022-12-29T05:21:03;5.70;;;3.60;;
73107;SDS011;61559;50.476;15.588;2022-12-29T05:23:34;5.50;;;3.20;;
73107;SDS011;61559;50.476;15.588;2022-12-29T05:26:05;11.70;;;5.60;;
73107;SDS011;61559;50.476;15.588;2022-12-29T05:28:36;9.30;;;5.10;;
73107;SDS011;61559;50.476;15.588;2022-12-29T05:31:07;8.50;;;4.10;;
73107;SDS011;61559;50.476;15.588;2022-12-29T05:33:38;6.90;;;3.60;;
73107;SDS011;61559;50.476;15.588;2022-12-29T05:36:10;6.70;;;3.50;;
73107;SDS011;61559;50.476;15.588;2022-12-29T05:38:41;6.40;;;3.60;;
73107;SDS011;61559;50.476;15.588;2022-12-29T05:41:12;8.90;;;4.50;;
73107;SDS011;61559;50.476;15.588;2022-12-29T05:43:44;8.40;;;4.40;;
73107;SDS011;61559;50.476;15.588;2022-12-29T05:46:15;8.80;;;4.60;;
73107;SDS011;61559;50.476;15.588;2022-12-29T05:48:46;10.90;;;4.80;;
73107;SDS011;61559;50.476;15.588;2022-12-29T05:51:17;8.70;;;4.60;;
73107;SDS011;61559;50.476;15.588;2022-12-29T05:56:18;11.50;;;5.80;;
73107;SDS011;61559;50.476;15.588;2022-12-29T05:58:49;9.50;;;5.70;;
73107;SDS011;61559;50.476;15.588;2022-12-29T06:03:50;10.60;;;5.70;;
73107;SDS011;61559;50.476;15.588;2022-12-29T06:08:51;10.50;;;5.00;;
73107;SDS011;61559;50.476;15.588;2022-12-29T06:13:52;8.10;;;4.90;;
73107;SDS011;61559;50.476;15.588;2022-12-29T06:16:23;13.00;;;5.90;;
73107;SDS011;61559;50.476;15.588;2022-12-29T06:18:54;11.50;;;6.00;;
73107;SDS011;61559;50.476;15.588;2022-12-29T06:21:25;9.70;;;5.00;;
73107;SDS011;61559;50.476;15.588;2022-12-29T06:23:55;9.80;;;5.00;;
73107;SDS011;61559;50.476;15.588;2022-12-29T06:26:27;15.30;;;8.80;;
73107;SDS011;61559;50.476;15.588;2022-12-29T06:28:59;7.60;;;4.30;;
73107;SDS011;61559;50.476;15.588;2022-12-29T06:34:00;6.50;;;3.70;;
73107;SDS011;61559;50.476;15.588;2022-12-29T06:36:35;8.40;;;3.20;;
73107;SDS011;61559;50.476;15.588;2022-12-29T06:39:07;11.30;;;5.50;;
73107;SDS011;61559;50.476;15.588;2022-12-29T06:41:39;18.60;;;9.20;;
73107;SDS011;61559;50.476;15.588;2022-12-29T06:44:10;20.40;;;10.00;;
73107;SDS011;61559;50.476;15.588;2022-12-29T06:46:41;11.70;;;5.50;;
73107;SDS011;61559;50.476;15.588;2022-12-29T06:49:12;20.00;;;8.50;;
73107;SDS011;61559;50.476;15.588;2022-12-29T06:51:44;9.20;;;4.90;;
73107;SDS011;61559;50.476;15.588;2022-12-29T06:56:45;6.80;;;3.60;;
73107;SDS011;61559;50.476;15.588;2022-12-29T06:59:16;8.90;;;4.60;;
73107;SDS011;61559;50.476;15.588;2022-12-29T07:01:46;9.60;;;5.60;;
73107;SDS011;61559;50.476;15.588;2022-12-29T07:06:47;5.90;;;3.80;;
73107;SDS011;61559;50.476;15.588;2022-12-29T07:09:18;4.80;;;3.20;;
73107;SDS011;61559;50.476;15.588;2022-12-29T07:11:50;7.80;;;3.90;;
73107;SDS011;61559;50.476;15.588;2022-12-29T07:14:21;9.40;;;4.10;;
73107;SDS011;61559;50.476;15.588;2022-12-29T07:16:51;7.70;;;3.80;;
73107;SDS011;61559;50.476;15.588;2022-12-29T07:19:23;4.60;;;3.10;;
73107;SDS011;61559;50.476;15.588;2022-12-29T07:21:55;6.40;;;3.10;;
73107;SDS011;61559;50.476;15.588;2022-12-29T07:24:26;10.30;;;5.00;;
73107;SDS011;61559;50.476;15.588;2022-12-29T07:26:57;5.10;;;3.20;;
73107;SDS011;61559;50.476;15.588;2022-12-29T07:29:29;8.60;;;4.40;;
73107;SDS011;61559;50.476;15.588;2022-12-29T07:34:29;7.20;;;3.50;;
73107;SDS011;61559;50.476;15.588;2022-12-29T07:37:00;8.50;;;4.50;;
73107;SDS011;61559;50.476;15.588;2022-12-29T07:39:31;8.50;;;4.90;;
73107;SDS011;61559;50.476;15.588;2022-12-29T07:42:03;10.10;;;5.50;;
73107;SDS011;61559;50.476;15.588;2022-12-29T07:44:34;7.30;;;4.90;;
73107;SDS011;61559;50.476;15.588;2022-12-29T07:47:05;13.60;;;7.00;;
73107;SDS011;61559;50.476;15.588;2022-12-29T07:49:37;9.90;;;4.90;;
73107;SDS011;61559;50.476;15.588;2022-12-29T07:52:08;8.40;;;4.50;;
73107;SDS011;61559;50.476;15.588;2022-12-29T07:57:09;7.80;;;4.30;;
73107;SDS011;61559;50.476;15.588;2022-12-29T08:02:10;6.50;;;4.10;;
73107;SDS011;61559;50.476;15.588;2022-12-29T08:04:41;7.60;;;4.50;;
73107;SDS011;61559;50.476;15.588;2022-12-29T08:07:12;8.00;;;4.20;;
73107;SDS011;61559;50.476;15.588;2022-12-29T08:12:13;7.60;;;4.30;;
73107;SDS011;61559;50.476;15.588;2022-12-29T08:14:44;8.00;;;4.70;;
73107;SDS011;61559;50.476;15.588;2022-12-29T08:17:15;9.50;;;4.70;;
73107;SDS011;61559;50.476;15.588;2022-12-29T08:19:46;7.20;;;4.60;;
73107;SDS011;61559;50.476;15.588;2022-12-29T08:22:18;10.20;;;4.50;;
73107;SDS011;61559;50.476;15.588;2022-12-29T08:27:19;7.30;;;4.00;;
73107;SDS011;61559;50.476;15.588;2022-12-29T08:29:51;13.60;;;6.60;;
73107;SDS011;61559;50.476;15.588;2022-12-29T08:32:22;10.80;;;5.80;;
73107;SDS011;61559;50.476;15.588;2022-12-29T08:34:53;12.50;;;5.60;;
73107;SDS011;61559;50.476;15.588;2022-12-29T08:37:25;11.50;;;5.20;;
73107;SDS011;61559;50.476;15.588;2022-12-29T08:39:58;9.20;;;4.70;;
73107;SDS011;61559;50.476;15.588;2022-12-29T08:42:32;19.00;;;12.10;;
73107;SDS011;61559;50.476;15.588;2022-12-29T08:45:03;13.60;;;8.50;;
73107;SDS011;61559;50.476;15.588;2022-12-29T08:47:36;10.10;;;5.40;;
73107;SDS011;61559;50.476;15.588;2022-12-29T08:50:08;11.80;;;5.00;;
73107;SDS011;61559;50.476;15.588;2022-12-29T08:52:39;14.60;;;6.50;;
73107;SDS011;61559;50.476;15.588;2022-12-29T08:55:10;10.00;;;5.30;;
73107;SDS011;61559;50.476;15.588;2022-12-29T08:57:41;13.90;;;7.00;;
73107;SDS011;61559;50.476;15.588;2022-12-29T09:00:13;21.40;;;10.80;;
73107;SDS011;61559;50.476;15.588;2022-12-29T09:02:45;17.10;;;7.80;;
73107;SDS011;61559;50.476;15.588;2022-12-29T09:05:17;13.80;;;5.70;;
73107;SDS011;61559;50.476;15.588;2022-12-29T09:07:48;12.60;;;7.10;;
73107;SDS011;61559;50.476;15.588;2022-12-29T09:10:19;11.50;;;5.70;;
73107;SDS011;61559;50.476;15.588;2022-12-29T09:12:51;11.10;;;5.90;;
73107;SDS011;61559;50.476;15.588;2022-12-29T09:15:22;11.60;;;6.00;;
73107;SDS011;61559;50.476;15.588;2022-12-29T09:17:53;11.40;;;5.80;;
73107;SDS011;61559;50.476;15.588;2022-12-29T09:20:24;10.70;;;5.30;;
73107;SDS011;61559;50.476;15.588;2022-12-29T09:22:55;9.90;;;4.70;;
73107;SDS011;61559;50.476;15.588;2022-12-29T09:25:26;9.30;;;4.90;;
73107;SDS011;61559;50.476;15.588;2022-12-29T09:27:58;10.30;;;5.40;;
73107;SDS011;61559;50.476;15.588;2022-12-29T09:30:32;8.80;;;5.30;;
73107;SDS011;61559;50.476;15.588;2022-12-29T09:35:33;7.40;;;4.00;;
73107;SDS011;61559;50.476;15.588;2022-12-29T09:40:33;10.10;;;5.40;;
73107;SDS011;61559;50.476;15.588;2022-12-29T09:43:10;10.20;;;5.80;;
73107;SDS011;61559;50.476;15.588;2022-12-29T09:45:59;10.10;;;4.60;;
73107;SDS011;61559;50.476;15.588;2022-12-29T09:48:41;16.60;;;7.90;;
73107;SDS011;61559;50.476;15.588;2022-12-29T09:51:18;15.90;;;9.50;;
73107;SDS011;61559;50.476;15.588;2022-12-29T09:53:53;12.40;;;7.00;;
73107;SDS011;61559;50.476;15.588;2022-12-29T09:56:29;17.00;;;8.80;;
73107;SDS011;61559;50.476;15.588;2022-12-29T09:59:02;13.10;;;7.00;;
73107;SDS011;61559;50.476;15.588;2022-12-29T10:01:43;11.00;;;6.20;;
73107;SDS011;61559;50.476;15.588;2022-12-29T10:04:21;13.10;;;7.50;;
73107;SDS011;61559;50.476;15.588;2022-12-29T10:06:56;14.20;;;6.70;;
73107;SDS011;61559;50.476;15.588;2022-12-29T10:09:53;12.90;;;6.80;;
73107;SDS011;61559;50.476;15.588;2022-12-29T10:12:37;14.10;;;7.00;;
73107;SDS011;61559;50.476;15.588;2022-12-29T10:15:26;10.50;;;5.90;;
73107;SDS011;61559;50.476;15.588;2022-12-29T10:18:12;9.80;;;5.30;;
73107;SDS011;61559;50.476;15.588;2022-12-29T10:20:57;13.20;;;6.90;;
73107;SDS011;61559;50.476;15.588;2022-12-29T10:23:40;12.10;;;5.80;;
73107;SDS011;61559;50.476;15.588;2022-12-29T10:26:17;10.30;;;5.10;;
73107;SDS011;61559;50.476;15.588;2022-12-29T10:28:51;12.50;;;6.90;;
73107;SDS011;61559;50.476;15.588;2022-12-29T10:31:37;11.00;;;6.40;;
73107;SDS011;61559;50.476;15.588;2022-12-29T10:34:15;15.10;;;7.20;;
73107;SDS011;61559;50.476;15.588;2022-12-29T10:36:50;15.20;;;6.90;;
73107;SDS011;61559;50.476;15.588;2022-12-29T10:39:28;11.40;;;6.20;;
73107;SDS011;61559;50.476;15.588;2022-12-29T10:42:07;14.00;;;7.10;;
73107;SDS011;61559;50.476;15.588;2022-12-29T10:44:44;13.20;;;6.20;;
73107;SDS011;61559;50.476;15.588;2022-12-29T10:47:16;16.90;;;9.60;;
73107;SDS011;61559;50.476;15.588;2022-12-29T10:49:51;12.60;;;6.20;;
73107;SDS011;61559;50.476;15.588;2022-12-29T10:52:23;10.50;;;5.70;;
73107;SDS011;61559;50.476;15.588;2022-12-29T10:54:58;12.70;;;6.70;;
73107;SDS011;61559;50.476;15.588;2022-12-29T10:57:32;11.70;;;5.40;;
73107;SDS011;61559;50.476;15.588;2022-12-29T11:00:10;8.80;;;4.90;;
73107;SDS011;61559;50.476;15.588;2022-12-29T11:02:48;8.30;;;4.80;;
73107;SDS011;61559;50.476;15.588;2022-12-29T11:05:32;10.50;;;7.00;;
73107;SDS011;61559;50.476;15.588;2022-12-29T11:08:10;9.40;;;5.40;;
73107;SDS011;61559;50.476;15.588;2022-12-29T11:10:44;9.90;;;5.90;;
73107;SDS011;61559;50.476;15.588;2022-12-29T11:13:26;11.60;;;5.70;;
73107;SDS011;61559;50.476;15.588;2022-12-29T11:16:05;11.10;;;5.80;;
73107;SDS011;61559;50.476;15.588;2022-12-29T11:18:40;9.70;;;5.30;;
73107;SDS011;61559;50.476;15.588;2022-12-29T11:21:25;10.20;;;6.30;;
73107;SDS011;61559;50.476;15.588;2022-12-29T11:24:01;11.30;;;5.80;;
73107;SDS011;61559;50.476;15.588;2022-12-29T11:26:34;12.00;;;7.50;;
73107;SDS011;61559;50.476;15.588;2022-12-29T11:29:10;22.00;;;9.90;;
73107;SDS011;61559;50.476;15.588;2022-12-29T11:31:51;12.90;;;6.30;;
73107;SDS011;61559;50.476;15.588;2022-12-29T11:34:24;22.70;;;10.20;;
73107;SDS011;61559;50.476;15.588;2022-12-29T11:37:02;17.50;;;9.80;;
73107;SDS011;61559;50.476;15.588;2022-12-29T11:39:36;14.80;;;6.80;;
73107;SDS011;61559;50.476;15.588;2022-12-29T11:42:13;14.10;;;6.70;;
73107;SDS011;61559;50.476;15.588;2022-12-29T11:44:47;18.20;;;7.50;;
73107;SDS011;61559;50.476;15.588;2022-12-29T11:47:25;14.20;;;7.00;;
73107;SDS011;61559;50.476;15.588;2022-12-29T11:49:59;11.50;;;6.30;;
73107;SDS011;61559;50.476;15.588;2022-12-29T11:52:33;13.80;;;6.90;;
73107;SDS011;61559;50.476;15.588;2022-12-29T11:55:17;12.10;;;6.20;;
73107;SDS011;61559;50.476;15.588;2022-12-29T12:00:23;12.90;;;7.30;;
73107;SDS011;61559;50.476;15.588;2022-12-29T12:02:57;12.50;;;7.10;;
73107;SDS011;61559;50.476;15.588;2022-12-29T12:05:39;16.20;;;9.80;;
73107;SDS011;61559;50.476;15.588;2022-12-29T12:08:17;13.50;;;7.40;;
73107;SDS011;61559;50.476;15.588;2022-12-29T12:10:52;15.30;;;7.50;;
73107;SDS011;61559;50.476;15.588;2022-12-29T12:13:29;11.50;;;6.90;;
73107;SDS011;61559;50.476;15.588;2022-12-29T12:16:06;47.70;;;20.90;;
73107;SDS011;61559;50.476;15.588;2022-12-29T12:18:43;25.90;;;12.50;;
73107;SDS011;61559;50.476;15.588;2022-12-29T12:21:20;73.70;;;35.20;;
73107;SDS011;61559;50.476;15.588;2022-12-29T12:24:07;23.40;;;11.30;;
73107;SDS011;61559;50.476;15.588;2022-12-29T12:26:53;15.80;;;8.30;;
73107;SDS011;61559;50.476;15.588;2022-12-29T12:29:32;24.40;;;11.90;;
73107;SDS011;61559;50.476;15.588;2022-12-29T12:32:11;22.40;;;11.00;;
73107;SDS011;61559;50.476;15.588;2022-12-29T12:34:48;20.10;;;9.70;;
73107;SDS011;61559;50.476;15.588;2022-12-29T12:37:36;23.80;;;9.70;;
73107;SDS011;61559;50.476;15.588;2022-12-29T12:40:28;24.10;;;10.10;;
73107;SDS011;61559;50.476;15.588;2022-12-29T12:43:20;30.10;;;14.30;;
73107;SDS011;61559;50.476;15.588;2022-12-29T12:46:05;22.30;;;11.00;;
73107;SDS011;61559;50.476;15.588;2022-12-29T12:48:51;26.60;;;13.40;;
73107;SDS011;61559;50.476;15.588;2022-12-29T12:51:36;68.60;;;29.10;;
73107;SDS011;61559;50.476;15.588;2022-12-29T12:54:18;30.20;;;13.30;;
73107;SDS011;61559;50.476;15.588;2022-12-29T12:57:05;18.70;;;9.00;;
73107;SDS011;61559;50.476;15.588;2022-12-29T12:59:48;45.20;;;19.90;;
73107;SDS011;61559;50.476;15.588;2022-12-29T13:02:34;19.90;;;9.90;;
73107;SDS011;61559;50.476;15.588;2022-12-29T13:05:22;37.10;;;18.50;;
73107;SDS011;61559;50.476;15.588;2022-12-29T13:08:07;19.30;;;9.80;;
73107;SDS011;61559;50.476;15.588;2022-12-29T13:10:57;17.50;;;8.20;;
73107;SDS011;61559;50.476;15.588;2022-12-29T13:16:41;13.30;;;7.00;;
73107;SDS011;61559;50.476;15.588;2022-12-29T13:19:19;13.50;;;7.60;;
73107;SDS011;61559;50.476;15.588;2022-12-29T13:21:59;13.60;;;6.40;;
73107;SDS011;61559;50.476;15.588;2022-12-29T13:24:43;10.40;;;6.60;;
73107;SDS011;61559;50.476;15.588;2022-12-29T13:27:23;16.10;;;7.70;;
73107;SDS011;61559;50.476;15.588;2022-12-29T13:30:07;16.80;;;9.60;;
73107;SDS011;61559;50.476;15.588;2022-12-29T13:32:46;19.20;;;9.00;;
73107;SDS011;61559;50.476;15.588;2022-12-29T13:35:30;16.00;;;8.80;;
73107;SDS011;61559;50.476;15.588;2022-12-29T13:38:12;14.70;;;7.20;;
73107;SDS011;61559;50.476;15.588;2022-12-29T13:40:49;13.50;;;7.00;;
73107;SDS011;61559;50.476;15.588;2022-12-29T13:43:23;14.60;;;7.70;;
73107;SDS011;61559;50.476;15.588;2022-12-29T13:45:57;16.00;;;8.50;;
73107;SDS011;61559;50.476;15.588;2022-12-29T13:48:36;12.50;;;7.40;;
73107;SDS011;61559;50.476;15.588;2022-12-29T13:51:10;11.90;;;6.70;;
73107;SDS011;61559;50.476;15.588;2022-12-29T13:53:47;12.60;;;6.90;;
73107;SDS011;61559;50.476;15.588;2022-12-29T13:56:33;10.00;;;6.30;;
73107;SDS011;61559;50.476;15.588;2022-12-29T13:59:11;10.40;;;6.70;;
73107;SDS011;61559;50.476;15.588;2022-12-29T14:01:52;10.50;;;6.50;;
73107;SDS011;61559;50.476;15.588;2022-12-29T14:04:27;13.40;;;6.30;;
73107;SDS011;61559;50.476;15.588;2022-12-29T14:07:02;12.50;;;7.30;;
73107;SDS011;61559;50.476;15.588;2022-12-29T14:09:44;12.50;;;7.40;;
73107;SDS011;61559;50.476;15.588;2022-12-29T14:12:22;18.30;;;9.00;;
73107;SDS011;61559;50.476;15.588;2022-12-29T14:15:13;16.90;;;8.90;;
73107;SDS011;61559;50.476;15.588;2022-12-29T14:18:10;15.40;;;7.70;;
73107;SDS011;61559;50.476;15.588;2022-12-29T14:20:54;23.60;;;12.80;;
73107;SDS011;61559;50.476;15.588;2022-12-29T14:23:29;21.20;;;10.50;;
73107;SDS011;61559;50.476;15.588;2022-12-29T14:26:12;16.40;;;9.60;;
73107;SDS011;61559;50.476;15.588;2022-12-29T14:28:46;16.30;;;8.40;;
73107;SDS011;61559;50.476;15.588;2022-12-29T14:34:29;19.40;;;10.80;;
73107;SDS011;61559;50.476;15.588;2022-12-29T14:37:17;20.70;;;10.20;;
73107;SDS011;61559;50.476;15.588;2022-12-29T14:40:05;16.90;;;9.90;;
73107;SDS011;61559;50.476;15.588;2022-12-29T14:42:45;20.60;;;10.20;;
73107;SDS011;61559;50.476;15.588;2022-12-29T14:45:26;16.90;;;8.10;;
73107;SDS011;61559;50.476;15.588;2022-12-29T14:47:58;19.90;;;9.60;;
73107;SDS011;61559;50.476;15.588;2022-12-29T14:50:34;18.70;;;9.20;;
73107;SDS011;61559;50.476;15.588;2022-12-29T14:56:00;17.20;;;9.00;;
73107;SDS011;61559;50.476;15.588;2022-12-29T14:58:32;24.20;;;12.30;;
73107;SDS011;61559;50.476;15.588;2022-12-29T15:01:24;22.20;;;11.10;;
73107;SDS011;61559;50.476;15.588;2022-12-29T15:04:05;24.70;;;12.20;;
73107;SDS011;61559;50.476;15.588;2022-12-29T15:06:46;24.90;;;12.90;;
73107;SDS011;61559;50.476;15.588;2022-12-29T15:09:22;29.30;;;13.60;;
73107;SDS011;61559;50.476;15.588;2022-12-29T15:12:00;28.40;;;13.80;;
73107;SDS011;61559;50.476;15.588;2022-12-29T15:14:49;23.10;;;11.30;;
73107;SDS011;61559;50.476;15.588;2022-12-29T15:17:25;25.10;;;12.70;;
73107;SDS011;61559;50.476;15.588;2022-12-29T15:19:58;17.70;;;9.70;;
73107;SDS011;61559;50.476;15.588;2022-12-29T15:22:31;25.70;;;13.30;;
73107;SDS011;61559;50.476;15.588;2022-12-29T15:25:02;28.80;;;14.80;;
73107;SDS011;61559;50.476;15.588;2022-12-29T15:27:33;29.40;;;14.10;;
73107;SDS011;61559;50.476;15.588;2022-12-29T15:30:11;27.40;;;14.60;;
73107;SDS011;61559;50.476;15.588;2022-12-29T15:32:46;25.50;;;13.00;;
73107;SDS011;61559;50.476;15.588;2022-12-29T15:35:25;26.10;;;12.80;;
73107;SDS011;61559;50.476;15.588;2022-12-29T15:37:59;22.20;;;12.00;;
73107;SDS011;61559;50.476;15.588;2022-12-29T15:40:42;27.30;;;13.90;;
73107;SDS011;61559;50.476;15.588;2022-12-29T15:43:21;29.10;;;14.40;;
73107;SDS011;61559;50.476;15.588;2022-12-29T15:45:59;27.90;;;15.30;;
73107;SDS011;61559;50.476;15.588;2022-12-29T15:48:31;24.40;;;14.10;;
73107;SDS011;61559;50.476;15.588;2022-12-29T15:51:03;27.90;;;15.40;;
73107;SDS011;61559;50.476;15.588;2022-12-29T15:53:47;23.40;;;12.50;;
73107;SDS011;61559;50.476;15.588;2022-12-29T15:56:20;27.50;;;12.80;;
73107;SDS011;61559;50.476;15.588;2022-12-29T15:58:52;24.50;;;13.90;;
73107;SDS011;61559;50.476;15.588;2022-12-29T16:01:25;29.30;;;13.60;;
73107;SDS011;61559;50.476;15.588;2022-12-29T16:04:01;39.90;;;19.50;;
73107;SDS011;61559;50.476;15.588;2022-12-29T16:06:36;37.60;;;17.70;;
73107;SDS011;61559;50.476;15.588;2022-12-29T16:09:15;34.80;;;16.40;;
73107;SDS011;61559;50.476;15.588;2022-12-29T16:11:50;23.90;;;12.40;;
73107;SDS011;61559;50.476;15.588;2022-12-29T16:14:24;26.00;;;12.60;;
73107;SDS011;61559;50.476;15.588;2022-12-29T16:17:02;27.40;;;15.00;;